Time;durP1;ratioP1;P1;durP2;ratioP2;P2;SDS_P1;SDS_P2;PMS_P1;PMS_P2;Temp;Humidity;BMP_temperature;BMP_pressure;BME280_temperature;BME280_humidity;BME280_pressure;Samples;Min_cycle;Max_cycle;Signal;HPM_P1;HPM_P2
2022/11/07 00:02:22;;;;;;;23.77;16.23;;;;;;;11.57;100.00;94687.97;5031903;28;20229;-63
2022/11/07 00:04:47;;;;;;;24.23;17.30;;;;;;;11.34;100.00;94690.94;5034039;28;20190;-60
2022/11/07 00:07:13;;;;;;;23.73;17.23;;;;;;;11.54;100.00;94690.81;5033471;28;20710;-58
2022/11/07 00:09:38;;;;;;;24.60;17.17;;;;;;;11.59;100.00;94698.84;5033737;28;20274;-58
2022/11/07 00:12:04;;;;;;;28.40;18.10;;;;;;;11.56;100.00;94696.56;5033732;28;20214;-58
2022/11/07 00:14:30;;;;;;;26.77;18.73;;;;;;;11.53;100.00;94689.19;5015808;28;20289;-63
2022/11/07 00:16:56;;;;;;;29.43;17.77;;;;;;;11.56;100.00;94695.75;5033532;28;20294;-60
2022/11/07 00:19:21;;;;;;;24.77;17.13;;;;;;;11.59;100.00;94696.31;5033390;28;20214;-60
2022/11/07 00:21:48;;;;;;;24.47;17.33;;;;;;;11.89;100.00;94697.91;5033372;28;20217;-58
2022/11/07 00:24:18;;;;;;;22.63;17.13;;;;;;;11.89;100.00;94697.91;5033699;28;20280;-61
2022/11/07 00:26:45;;;;;;;22.30;16.20;;;;;;;11.89;100.00;94703.00;5033366;28;20209;-58
2022/11/07 00:29:13;;;;;;;25.83;17.57;;;;;;;11.83;100.00;94693.34;5033263;28;20260;-59
2022/11/07 00:31:38;;;;;;;24.77;15.73;;;;;;;11.76;100.00;94693.09;5033183;28;20748;-60
2022/11/07 00:34:04;;;;;;;26.97;16.67;;;;;;;11.75;100.00;94686.41;5033484;28;20614;-61
2022/11/07 00:36:29;;;;;;;22.13;15.87;;;;;;;11.71;100.00;94690.16;5033227;28;20323;-64
2022/11/07 00:38:55;;;;;;;24.17;16.40;;;;;;;11.67;100.00;94699.00;5033343;28;20671;-57
2022/11/07 00:41:21;;;;;;;25.37;16.27;;;;;;;11.68;100.00;94689.59;5032939;28;20779;-60
2022/11/07 00:43:47;;;;;;;24.87;16.77;;;;;;;11.71;100.00;94697.81;5033097;28;20567;-62
2022/11/07 00:46:15;;;;;;;22.93;17.10;;;;;;;11.56;100.00;94691.47;5032970;28;20225;-59
2022/11/07 00:48:40;;;;;;;28.33;17.57;;;;;;;11.61;100.00;94691.88;5032864;28;20228;-60
2022/11/07 00:51:10;;;;;;;22.83;16.97;;;;;;;11.76;100.00;94698.19;5033201;28;20210;-61
2022/11/07 00:53:36;;;;;;;27.30;18.50;;;;;;;11.58;100.00;94693.88;5032767;28;20198;-60
2022/11/07 00:56:04;;;;;;;27.50;17.57;;;;;;;11.73;100.00;94698.47;5032993;28;20584;-61
2022/11/07 00:58:30;;;;;;;32.97;19.13;;;;;;;11.71;100.00;94684.25;5032877;28;20656;-62
2022/11/07 01:00:56;;;;;;;28.27;19.10;;;;;;;11.67;100.00;94682.91;5015020;28;20194;-62
2022/11/07 01:06:06;;;;;;;30.63;22.37;;;;;;;11.71;100.00;94687.63;5032851;28;20301;-61
2022/11/07 01:08:32;;;;;;;33.20;22.53;;;;;;;11.71;100.00;94681.72;5031723;28;20305;-58
2022/11/07 01:10:58;;;;;;;39.10;23.13;;;;;;;11.65;100.00;94680.50;5032406;28;20225;-60
2022/11/07 01:13:24;;;;;;;32.97;22.70;;;;;;;11.66;100.00;94671.13;5031629;28;20273;-60
2022/11/07 01:15:50;;;;;;;33.53;23.53;;;;;;;11.73;100.00;94674.75;5032512;28;20267;-58
2022/11/07 01:18:16;;;;;;;36.10;23.97;;;;;;;11.70;100.00;94672.44;5032422;28;20240;-60
2022/11/07 01:20:41;;;;;;;36.87;24.53;;;;;;;11.65;100.00;94672.84;5032571;28;20190;-58
2022/11/07 01:23:07;;;;;;;34.00;23.60;;;;;;;11.74;100.00;94669.50;5032406;28;20209;-60
2022/11/07 01:25:36;;;;;;;38.73;24.33;;;;;;;11.76;100.00;94669.34;5032255;28;20186;-62
2022/11/07 01:28:01;;;;;;;33.00;22.63;;;;;;;11.51;100.00;94667.34;5032092;28;20218;-58
2022/11/07 01:30:26;;;;;;;30.97;21.63;;;;;;;11.55;100.00;94661.84;5032122;28;20220;-60
2022/11/07 01:32:52;;;;;;;35.17;22.60;;;;;;;11.60;100.00;94661.44;5032213;28;20206;-63
2022/11/07 01:35:17;;;;;;;31.03;21.80;;;;;;;11.84;100.00;94668.69;5032303;28;20299;-62
2022/11/07 01:37:42;;;;;;;29.53;22.60;;;;;;;12.01;100.00;94671.34;5032141;28;20522;-59
2022/11/07 01:40:09;;;;;;;34.20;21.30;;;;;;;11.99;100.00;94664.75;5032438;28;20336;-60
2022/11/07 01:42:34;;;;;;;30.10;20.30;;;;;;;12.07;100.00;94668.22;5032228;28;20610;-58
2022/11/07 01:44:59;;;;;;;31.23;19.80;;;;;;;12.02;100.00;94662.72;5032240;28;20190;-62
2022/11/07 01:47:31;;;;;;;31.43;20.17;;;;;;;11.93;100.00;94666.13;5032143;28;20291;-59
2022/11/07 01:49:58;;;;;;;30.23;20.03;;;;;;;11.74;100.00;94661.84;5014353;28;20301;-62
2022/11/07 01:52:27;;;;;;;29.23;20.10;;;;;;;11.78;100.00;94658.09;5031978;28;20214;-61
2022/11/07 01:54:56;;;;;;;25.30;18.87;;;;;;;11.71;100.00;94653.69;5032318;28;20202;-63
2022/11/07 01:57:29;;;;;;;26.50;18.03;;;;;;;11.68;100.00;94659.84;5031991;28;20210;-60
2022/11/07 01:59:57;;;;;;;38.73;19.33;;;;;;;11.66;100.00;94660.94;5031958;28;20186;-63
2022/11/07 02:02:25;;;;;;;28.93;19.67;;;;;;;11.73;100.00;94660.28;5031767;28;20206;-61
2022/11/07 02:04:52;;;;;;;34.20;19.80;;;;;;;11.72;100.00;94663.75;5031838;28;20248;-60
2022/11/07 02:07:20;;;;;;;27.97;17.70;;;;;;;11.80;100.00;94657.97;5027659;22;20254;-60
2022/11/07 02:09:45;;;;;;;27.20;18.30;;;;;;;11.77;100.00;94668.44;5011846;28;20194;-60
2022/11/07 02:12:12;;;;;;;37.43;19.27;;;;;;;11.72;100.00;94663.75;5011687;28;20333;-63
2022/11/07 02:14:37;;;;;;;30.30;18.60;;;;;;;11.85;100.00;94670.28;5011958;28;20673;-63
2022/11/07 02:17:03;;;;;;;29.47;19.00;;;;;;;11.94;100.00;94669.47;5012181;28;20676;-59
2022/11/07 02:19:41;;;;;;;34.30;19.60;;;;;;;11.73;100.00;94673.00;5011806;28;20677;-62
2022/11/07 02:22:19;;;;;;;30.53;19.27;;;;;;;11.73;100.00;94669.66;5012202;28;20218;-63
2022/11/07 02:24:50;;;;;;;28.90;19.60;;;;;;;11.65;100.00;94667.75;5011902;28;20187;-61
2022/11/07 02:27:18;;;;;;;34.07;18.33;;;;;;;11.73;100.00;94675.56;5011918;28;20245;-60
2022/11/07 02:29:48;;;;;;;29.07;19.33;;;;;;;11.70;100.00;94673.25;5012025;28;20187;-61
2022/11/07 02:32:14;;;;;;;29.13;19.03;;;;;;;11.62;100.00;94669.75;5011796;28;20298;-59
2022/11/07 02:34:39;;;;;;;29.10;20.00;;;;;;;11.73;100.00;94678.09;5011604;28;20279;-61
2022/11/07 02:37:34;;;;;;;31.17;19.00;;;;;;;11.65;100.00;94667.75;5011535;28;20223;-61
2022/11/07 02:40:03;;;;;;;23.33;16.97;;;;;;;11.76;100.00;94674.44;5011556;28;20739;-60
2022/11/07 02:42:42;;;;;;;33.27;19.70;;;;;;;11.84;100.00;94673.78;5011302;28;20211;-62
2022/11/07 02:45:19;;;;;;;28.43;19.07;;;;;;;11.51;100.00;94657.97;5011608;28;20197;-61
2022/11/07 02:47:45;;;;;;;29.20;19.03;;;;;;;11.56;100.00;94670.28;5011510;28;20595;-59
2022/11/07 02:50:14;;;;;;;29.10;19.23;;;;;;;11.59;100.00;94678.47;5011556;28;20182;-60
2022/11/07 02:52:40;;;;;;;29.33;18.63;;;;;;;11.63;100.00;94671.38;5011552;28;20207;-59
2022/11/07 02:55:08;;;;;;;32.30;19.67;;;;;;;11.80;100.00;94676.59;5011359;28;20267;-58
2022/11/07 02:57:33;;;;;;;26.87;18.97;;;;;;;11.87;100.00;94684.50;5010049;28;20246;-63
2022/11/07 02:59:59;;;;;;;34.07;19.90;;;;;;;11.75;100.00;94675.41;5011305;28;20625;-60
2022/11/07 03:02:25;;;;;;;28.50;19.50;;;;;;;11.77;100.00;94679.44;5011429;28;20215;-60
2022/11/07 03:04:50;;;;;;;29.43;19.73;;;;;;;11.68;100.00;94675.13;5011506;28;20621;-62
2022/11/07 03:07:16;;;;;;;32.60;20.03;;;;;;;11.80;100.00;94678.34;5011304;28;20333;-61
2022/11/07 03:09:41;;;;;;;30.60;19.50;;;;;;;11.95;100.00;94681.25;5011153;28;20619;-58
2022/11/07 03:12:07;;;;;;;26.60;18.67;;;;;;;11.79;100.00;94677.56;5010971;28;20297;-62
2022/11/07 03:14:33;;;;;;;27.17;18.53;;;;;;;11.60;100.00;94674.97;5009883;28;20669;-61
2022/11/07 03:16:58;;;;;;;33.80;19.23;;;;;;;11.58;100.00;94674.31;5009755;28;20297;-61
2022/11/07 03:19:24;;;;;;;29.40;19.10;;;;;;;11.56;100.00;94680.47;5011102;28;20205;-61
2022/11/07 03:21:50;;;;;;;25.13;19.43;;;;;;;11.53;100.00;94679.00;5010988;28;20224;-63
2022/11/07 03:24:16;;;;;;;29.57;20.23;;;;;;;11.66;100.00;94676.22;5009803;28;20196;-61
2022/11/07 03:26:42;;;;;;;31.47;17.87;;;;;;;11.71;100.00;94685.06;5011028;28;20210;-58
2022/11/07 03:29:08;;;;;;;31.20;19.70;;;;;;;11.68;100.00;94680.22;5009724;28;20214;-63
2022/11/07 03:31:33;;;;;;;31.73;19.73;;;;;;;11.59;100.00;94685.31;5010755;28;20297;-58
2022/11/07 03:33:58;;;;;;;33.53;19.80;;;;;;;11.62;100.00;94688.38;5010837;28;20187;-60
2022/11/07 03:36:24;;;;;;;30.97;19.07;;;;;;;11.60;100.00;94677.53;5009995;28;20230;-60
2022/11/07 03:38:49;;;;;;;31.30;19.63;;;;;;;11.60;100.00;94686.91;5014306;28;20195;-61
2022/11/07 03:41:16;;;;;;;33.20;19.77;;;;;;;11.61;100.00;94696.97;5014533;28;20280;-60
2022/11/07 03:43:44;;;;;;;33.47;20.43;;;;;;;11.50;100.00;94699.66;5014451;28;20645;-62
2022/11/07 03:46:14;;;;;;;33.43;19.87;;;;;;;11.34;100.00;94707.00;5012735;28;20203;-61
2022/11/07 03:48:40;;;;;;;35.17;21.03;;;;;;;11.38;100.00;94715.97;5014053;28;20241;-60
2022/11/07 03:51:07;;;;;;;33.13;21.33;;;;;;;11.15;100.00;94716.38;5013930;28;20592;-62
2022/11/07 03:53:33;;;;;;;34.70;21.87;;;;;;;11.04;100.00;94719.81;5012827;28;20257;-60
2022/11/07 03:55:58;;;;;;;31.57;21.13;;;;;;;11.04;100.00;94714.75;5013801;28;20191;-60
2022/11/07 03:58:25;;;;;;;31.83;21.13;;;;;;;10.84;100.00;94718.19;5014004;28;20221;-57
2022/11/07 04:00:50;;;;;;;38.10;22.37;;;;;;;10.99;100.00;94732.13;5013888;28;20225;-58
2022/11/07 04:03:16;;;;;;;29.73;20.97;;;;;;;10.94;100.00;94736.81;5013830;28;20226;-61
2022/11/07 04:05:41;;;;;;;32.13;20.57;;;;;;;10.73;100.00;94730.97;5013845;28;20183;-62
2022/11/07 04:08:07;;;;;;;29.83;20.67;;;;;;;10.62;100.00;94736.97;5013846;28;20357;-60
2022/11/07 04:10:33;;;;;;;34.07;22.63;;;;;;;10.48;100.00;94742.41;5013711;28;20661;-62
2022/11/07 04:18:30;;;;;;;23.73;16.90;;;;;;;11.33;100.00;94746.09;5014211;28;20209;-61
2022/11/07 04:20:55;;;;;;;34.30;22.27;;;;;;;11.06;100.00;94753.56;5013654;28;20289;-57
2022/11/07 04:23:20;;;;;;;31.17;19.43;;;;;;;10.98;100.00;94758.50;5013645;28;20199;-63
2022/11/07 04:28:30;;;;;;;30.83;19.97;;;;;;;10.84;100.00;94758.88;5015058;28;20226;-59
2022/11/07 04:30:56;;;;;;;32.00;20.33;;;;;;;11.15;100.00;94767.25;5013467;28;20183;-58
2022/11/07 04:33:21;;;;;;;27.80;19.80;;;;;;;11.17;100.00;94761.06;5013356;28;20213;-63
2022/11/07 04:35:46;;;;;;;30.10;20.20;;;;;;;11.25;100.00;94763.00;5013302;28;20191;-60
2022/11/07 04:38:12;;;;;;;33.30;19.20;;;;;;;11.26;100.00;94762.84;5013426;28;20262;-60
2022/11/07 04:40:37;;;;;;;29.17;18.83;;;;;;;11.19;100.00;94766.84;5013224;28;20290;-59
2022/11/07 04:43:07;;;;;;;30.63;19.40;;;;;;;11.07;100.00;94755.16;5013329;28;20265;-63
2022/11/07 04:45:37;;;;;;;28.30;19.43;;;;;;;10.95;100.00;94751.13;5013231;28;20211;-59
2022/11/07 04:48:04;;;;;;;28.23;19.90;;;;;;;11.12;100.00;94762.41;5012087;28;20211;-60
2022/11/07 04:50:29;;;;;;;29.47;20.03;;;;;;;11.08;100.00;94751.69;5012927;28;20194;-60
2022/11/07 04:52:55;;;;;;;29.80;21.27;;;;;;;10.90;100.00;94748.16;5013205;28;20582;-60
2022/11/07 04:55:24;;;;;;;27.97;19.83;;;;;;;10.91;100.00;94755.66;5013038;28;20187;-60
2022/11/07 04:57:49;;;;;;;29.27;20.17;;;;;;;11.16;100.00;94766.31;5013107;28;20314;-62
2022/11/07 05:00:16;;;;;;;28.40;19.53;;;;;;;11.30;100.00;94768.47;5013053;28;20226;-60
2022/11/07 05:02:42;;;;;;;29.07;20.23;;;;;;;11.35;100.00;94779.88;5012968;28;20276;-60
2022/11/07 05:05:08;;;;;;;42.10;21.10;;;;;;;11.32;100.00;94764.88;5013038;28;20582;-63
2022/11/07 05:07:33;;;;;;;31.40;20.80;;;;;;;11.24;100.00;94762.19;5012689;28;20226;-59
2022/11/07 05:09:59;;;;;;;33.77;19.53;;;;;;;11.28;100.00;94757.63;5012797;28;20183;-63
2022/11/07 05:12:24;;;;;;;33.47;20.07;;;;;;;11.23;100.00;94763.09;5012892;28;20264;-61
2022/11/07 05:14:50;;;;;;;30.97;19.50;;;;;;;11.27;100.00;94758.56;5012972;28;20216;-62
2022/11/07 05:17:15;;;;;;;27.27;19.03;;;;;;;11.42;100.00;94775.88;5012617;28;20215;-61
2022/11/07 05:19:46;;;;;;;33.17;19.77;;;;;;;11.57;100.00;94781.38;5012829;28;20195;-60
2022/11/07 05:24:55;;;;;;;30.07;20.70;;;;;;;11.53;100.00;94769.84;5012794;28;20206;-62
2022/11/07 05:27:22;;;;;;;26.87;18.63;;;;;;;11.83;100.00;94800.34;5013158;28;20211;-62
2022/11/07 05:29:47;;;;;;;30.37;19.07;;;;;;;11.84;100.00;94796.84;5012474;28;20182;-62
2022/11/07 05:32:13;;;;;;;32.53;20.30;;;;;;;11.69;100.00;94783.72;5012705;28;20209;-58
2022/11/07 05:34:39;;;;;;;26.33;18.73;;;;;;;11.86;100.00;94801.81;5011077;28;20202;-58
2022/11/07 05:37:09;;;;;;;32.03;21.67;;;;;;;11.79;100.00;94789.63;5012449;28;20776;-58
2022/11/07 05:39:35;;;;;;;28.70;19.80;;;;;;;11.60;100.00;94781.91;5012575;28;20247;-59
2022/11/07 05:42:02;;;;;;;33.57;22.50;;;;;;;11.32;100.00;94804.78;5012919;28;20326;-61
2022/11/07 05:44:29;;;;;;;32.47;22.03;;;;;;;11.25;100.00;94819.75;5012358;28;20191;-64
2022/11/07 05:46:56;;;;;;;35.67;23.80;;;;;;;11.06;100.00;94827.34;5012444;28;20206;-65
2022/11/07 05:49:21;;;;;;;39.17;24.50;;;;;;;11.03;100.00;94819.16;5012461;28;20600;-58
2022/11/07 05:51:47;;;;;;;34.20;23.27;;;;;;;10.93;100.00;94814.84;5012036;28;20211;-60
2022/11/07 05:54:12;;;;;;;32.80;21.73;;;;;;;10.99;100.00;94818.59;5012415;28;20187;-59
2022/11/07 05:56:39;;;;;;;31.20;21.30;;;;;;;11.23;100.00;94836.91;5012492;28;20286;-68
2022/11/07 05:59:08;;;;;;;38.43;23.20;;;;;;;11.38;100.00;94839.88;4994771;28;20199;-63
2022/11/07 06:01:33;;;;;;;32.60;21.93;;;;;;;11.62;100.00;94799.59;5011977;28;20214;-60
2022/11/07 06:03:59;;;;;;;29.67;21.90;;;;;;;11.48;100.00;94836.44;5012365;28;20197;-59
2022/11/07 06:06:24;;;;;;;31.93;21.87;;;;;;;11.63;100.00;94847.88;5011867;28;20688;-61
2022/11/07 06:08:49;;;;;;;43.57;24.07;;;;;;;11.44;100.00;94835.09;5012095;28;20206;-60
2022/11/07 06:11:15;;;;;;;33.97;22.80;;;;;;;11.48;100.00;94839.00;5012277;28;20265;-58
2022/11/07 06:13:40;;;;;;;34.87;23.17;;;;;;;11.63;100.00;94847.06;5011921;28;20642;-59
2022/11/07 06:16:06;;;;;;;38.03;23.37;;;;;;;11.77;100.00;94847.53;5011846;28;20717;-60
2022/11/07 06:18:36;;;;;;;50.27;27.90;;;;;;;11.99;100.00;94804.88;5011952;28;20190;-57
2022/11/07 06:21:02;;;;;;;61.93;29.73;;;;;;;13.69;100.00;94831.75;5012353;28;20676;-61
2022/11/07 06:23:27;;;;;;;38.17;26.85;;;;;;;14.38;100.00;94831.94;5012074;28;20238;-65
2022/11/07 06:25:52;;;;;;;32.53;22.13;;;;;;;13.99;100.00;94836.53;5010536;28;20195;-63
2022/11/07 06:28:18;;;;;;;34.47;21.88;;;;;;;13.57;100.00;94836.28;5011882;28;20579;-63
2022/11/07 06:30:44;;;;;;;36.30;23.00;;;;;;;13.57;100.00;94843.13;5012015;28;20619;-61
2022/11/07 06:33:13;;;;;;;34.28;22.40;;;;;;;13.37;100.00;94848.31;5011812;28;20218;-62
2022/11/07 06:35:38;;;;;;;28.17;20.48;;;;;;;13.41;100.00;94910.16;5011759;28;20201;-64
2022/11/07 06:38:06;;;;;;;30.00;20.30;;;;;;;13.26;100.00;94917.44;5011720;28;20203;-63
2022/11/07 06:40:31;;;;;;;32.63;21.87;;;;;;;13.05;100.00;94878.53;5011805;28;22122;-61
2022/11/07 06:43:29;;;;;;;31.87;21.27;;;;;;;13.14;100.00;94882.00;5011743;28;20758;-61
2022/11/07 06:45:54;;;;;;;28.02;20.30;;;;;;;12.84;100.00;94865.16;4978572;28;20211;-63
2022/11/07 06:48:20;;;;;;;36.60;21.43;;;;;;;12.67;100.00;94858.19;4994083;28;20653;-64
2022/11/07 06:50:45;;;;;;;30.37;21.77;;;;;;;12.63;100.00;94855.13;5011637;28;20195;-62
2022/11/07 06:53:11;;;;;;;37.53;23.17;;;;;;;12.78;100.00;94865.72;5036407;23;20246;-62
2022/11/07 06:55:38;;;;;;;36.67;22.67;;;;;;;12.64;100.00;94854.19;5031282;28;20200;-62
2022/11/07 06:58:03;;;;;;;33.83;23.10;;;;;;;12.70;100.00;94867.34;5030929;28;20202;-62
2022/11/07 07:00:31;;;;;;;40.23;22.73;;;;;;;12.73;100.00;94867.03;5030808;28;20185;-64
2022/11/07 07:02:57;;;;;;;32.33;21.57;;;;;;;12.76;100.00;94882.91;5030884;28;20607;-61
2022/11/07 07:05:22;;;;;;;44.23;27.10;;;;;;;12.53;100.00;94882.41;5030963;28;20640;-61
2022/11/07 07:07:48;;;;;;;35.20;25.13;;;;;;;12.57;100.00;94883.72;5031022;28;20726;-60
2022/11/07 07:10:14;;;;;;;44.10;25.23;;;;;;;12.53;100.00;94882.41;5030784;28;20182;-65
2022/11/07 07:12:40;;;;;;;43.77;25.67;;;;;;;12.46;100.00;94867.78;5012310;28;20220;-62
2022/11/07 07:15:11;;;;;;;37.33;24.77;;;;;;;12.32;100.00;94861.34;5031123;28;20182;-62
2022/11/07 07:17:37;;;;;;;44.30;25.20;;;;;;;12.14;100.00;94857.84;5030877;28;20222;-64
2022/11/07 07:20:04;;;;;;;40.87;24.63;;;;;;;11.95;100.00;94859.59;5030822;28;20186;-62
2022/11/07 07:22:29;;;;;;;39.23;26.03;;;;;;;12.19;100.00;94876.09;5030797;28;20588;-61
2022/11/07 07:24:54;;;;;;;43.33;26.13;;;;;;;12.03;100.00;94862.28;5030842;28;20182;-61
2022/11/07 07:27:20;;;;;;;35.87;24.53;;;;;;;12.16;100.00;94868.72;5013135;28;20699;-61
2022/11/07 07:29:46;;;;;;;40.67;24.63;;;;;;;12.27;100.00;94883.88;5030938;28;20190;-62
2022/11/07 07:32:11;;;;;;;37.80;25.07;;;;;;;12.33;100.00;94885.09;5030817;28;20751;-65
2022/11/07 07:34:37;;;;;;;33.43;24.90;;;;;;;12.26;100.00;94887.34;5030725;28;20273;-65
2022/11/07 07:37:02;;;;;;;42.90;24.83;;;;;;;12.25;100.00;94892.59;5012845;28;20222;-61
2022/11/07 07:39:29;;;;;;;36.90;25.33;;;;;;;12.15;100.00;94881.59;5030662;28;20194;-61
2022/11/07 07:41:55;;;;;;;36.63;24.40;;;;;;;12.18;100.00;94886.44;5030357;28;20284;-61
2022/11/07 07:44:20;;;;;;;38.13;25.40;;;;;;;12.37;100.00;94887.25;5030795;28;20202;-62
2022/11/07 07:46:46;;;;;;;38.97;25.40;;;;;;;12.51;100.00;94886.81;5030455;28;20260;-63
2022/11/07 07:49:11;;;;;;;45.97;26.50;;;;;;;12.61;100.00;94895.28;5030529;28;20214;-61
2022/11/07 07:51:36;;;;;;;40.83;25.10;;;;;;;12.55;100.00;94895.81;5030502;28;20210;-61
2022/11/07 07:54:02;;;;;;;36.97;22.73;;;;;;;12.91;100.00;94907.03;5030588;28;20186;-62
2022/11/07 07:56:27;;;;;;;37.93;23.97;;;;;;;12.91;100.00;94893.50;5030488;28;20735;-61
2022/11/07 07:58:53;;;;;;;37.07;24.23;;;;;;;12.91;100.00;94878.97;5030539;28;20268;-62
2022/11/07 08:01:18;;;;;;;41.35;25.40;;;;;;;13.00;100.00;94879.88;5030485;28;20662;-60
2022/11/07 08:03:44;;;;;;;43.10;25.90;;;;;;;13.09;100.00;94884.97;5030569;28;20198;-62
2022/11/07 08:06:09;;;;;;;36.23;25.07;;;;;;;13.17;100.00;94891.97;5030195;28;20249;-63
2022/11/07 08:08:35;;;;;;;33.13;23.50;;;;;;;13.43;100.00;94895.50;5030348;28;20218;-62
2022/11/07 08:11:07;;;;;;;38.33;23.60;;;;;;;13.53;100.00;94920.97;5030377;28;20548;-62
2022/11/07 08:13:33;;;;;;;36.00;24.00;;;;;;;13.68;100.00;94920.38;5012406;28;20200;-62
2022/11/07 08:16:02;;;;;;;40.00;23.50;;;;;;;13.73;100.00;94904.63;5030224;28;20190;-63
2022/11/07 08:18:27;;;;;;;41.53;24.63;;;;;;;13.80;100.00;94890.31;5029960;28;20198;-61
2022/11/07 08:20:54;;;;;;;45.67;25.00;;;;;;;13.80;100.00;94874.97;5030015;28;20190;-64
2022/11/07 08:23:21;;;;;;;38.25;23.40;;;;;;;13.77;100.00;94901.63;5014147;28;20190;-61
2022/11/07 08:25:50;;;;;;;34.80;24.08;;;;;;;13.82;100.00;94925.00;5015522;28;20289;-62
2022/11/07 08:28:16;;;;;;;35.60;23.38;;;;;;;13.84;100.00;94918.00;5033439;28;20283;-62
2022/11/07 08:30:42;;;;;;;43.97;24.73;;;;;;;13.95;100.00;94904.22;5033224;28;20194;-64
2022/11/07 08:33:08;;;;;;;31.33;22.40;;;;;;;13.93;100.00;94912.03;5033217;28;20241;-62
2022/11/07 08:35:33;;;;;;;33.92;22.45;;;;;;;14.02;100.00;94928.25;5033383;28;20277;-63
2022/11/07 08:37:59;;;;;;;37.80;22.57;;;;;;;14.07;100.00;94941.41;5033371;28;20214;-63
2022/11/07 08:40:24;;;;;;;39.72;22.85;;;;;;;13.83;100.00;94928.38;5033518;28;20217;-63
2022/11/07 08:42:50;;;;;;;32.83;20.97;;;;;;;13.72;100.00;94901.25;5033210;28;20206;-63
2022/11/07 08:45:15;;;;;;;34.63;22.27;;;;;;;13.86;100.00;94915.28;5015366;28;20198;-63
2022/11/07 08:47:41;;;;;;;35.63;22.50;;;;;;;13.83;100.00;94890.03;5032959;28;20292;-61
2022/11/07 08:50:07;;;;;;;34.23;20.60;;;;;;;13.83;100.00;94895.16;5033103;28;20224;-64
2022/11/07 08:52:34;;;;;;;32.30;20.83;;;;;;;13.85;100.00;94918.81;5014940;28;20229;-64
2022/11/07 08:55:01;;;;;;;30.08;20.77;;;;;;;13.93;100.00;94893.34;5033007;28;20186;-62
2022/11/07 08:57:26;;;;;;;33.30;19.27;;;;;;;14.05;100.00;94927.97;5033173;28;20210;-62
2022/11/07 08:59:52;;;;;;;30.25;19.15;;;;;;;13.87;100.00;94887.06;5032806;28;20182;-63
2022/11/07 09:02:17;;;;;;;25.27;17.80;;;;;;;14.07;100.00;94913.28;5033173;28;20210;-62
2022/11/07 09:04:43;;;;;;;30.80;18.50;;;;;;;14.19;100.00;94919.81;5032829;28;20700;-63
2022/11/07 09:07:08;;;;;;;27.83;19.52;;;;;;;14.21;100.00;94893.16;5032545;28;20301;-63
2022/11/07 09:09:34;;;;;;;32.10;18.85;;;;;;;14.33;100.00;94911.66;5014691;28;20696;-63
2022/11/07 09:11:59;;;;;;;27.58;18.17;;;;;;;14.36;100.00;94920.78;5032737;28;20363;-63
2022/11/07 09:14:24;;;;;;;33.35;19.17;;;;;;;14.29;100.00;94905.22;5032623;28;20178;-63
2022/11/07 09:16:50;;;;;;;31.25;18.98;;;;;;;14.57;100.00;94942.56;5014734;28;20222;-62
2022/11/07 09:19:15;;;;;;;27.83;18.73;;;;;;;14.52;100.00;94952.44;5032559;28;20261;-63
2022/11/07 09:21:41;;;;;;;29.98;17.95;;;;;;;14.68;100.00;94974.81;5014659;28;20218;-63
2022/11/07 09:24:07;;;;;;;31.73;19.45;;;;;;;14.68;100.00;94952.59;5032358;28;20221;-64
2022/11/07 09:26:32;;;;;;;28.85;18.35;;;;;;;14.54;100.00;94971.03;5014580;28;20311;-62
2022/11/07 09:28:58;;;;;;;29.83;19.63;;;;;;;14.55;100.00;94918.06;5032212;28;20255;-63
2022/11/07 09:31:23;;;;;;;30.35;19.83;;;;;;;14.48;100.00;94934.97;5032371;28;20221;-63
2022/11/07 09:33:49;;;;;;;36.38;19.42;;;;;;;14.62;100.00;94922.47;5032099;28;20183;-63
2022/11/07 09:36:32;;;;;;;30.02;19.95;;;;;;;14.73;100.00;94900.94;5031623;28;20218;-64
2022/11/07 09:38:59;;;;;;;31.30;19.70;;;;;;;14.94;100.00;94956.00;5032180;28;20194;-62
2022/11/07 09:41:55;;;;;;;34.72;19.05;;;;;;;15.04;100.00;94981.50;5032493;28;20279;-63
2022/11/07 09:44:29;;;;;;;28.08;17.60;;;;;;;14.89;100.00;95004.28;5032212;28;20190;-63
2022/11/07 09:47:18;;;;;;;29.83;18.15;;;;;;;15.02;100.00;94974.00;5032228;28;20213;-63
2022/11/07 09:49:47;;;;;;;34.88;19.55;;;;;;;15.06;100.00;94989.84;5031924;28;20214;-63
2022/11/07 09:52:28;;;;;;;29.27;18.73;;;;;;;15.23;100.00;94991.56;5032052;28;20260;-62
2022/11/07 09:55:22;;;;;;;29.92;18.02;;;;;;;15.09;100.00;94949.38;5031953;28;20198;-64
2022/11/07 09:57:49;;;;;;;25.83;16.70;;;;;;;15.06;100.00;94972.75;5013783;28;20226;-63
2022/11/07 10:00:19;;;;;;;24.75;16.95;;;;;;;14.92;100.00;95036.47;5031649;28;20541;-63
2022/11/07 10:02:48;;;;;;;30.15;16.90;;;;;;;14.98;100.00;95013.63;5031724;28;20197;-63
2022/11/07 10:05:24;;;;;;;26.52;16.25;;;;;;;14.96;100.00;95012.16;5031607;28;20692;-63
2022/11/07 10:08:06;;;;;;;23.75;15.40;;;;;;;15.18;100.00;95067.25;5031542;28;20217;-63
2022/11/07 10:10:42;;;;;;;26.50;16.42;;;;;;;15.20;100.00;95014.13;5031775;28;20190;-64
2022/11/07 10:13:13;;;;;;;26.33;18.15;;;;;;;15.25;100.00;94981.19;5031760;28;20264;-64
2022/11/07 10:16:00;;;;;;;24.50;16.05;;;;;;;15.31;100.00;95024.13;5013875;28;20649;-65
2022/11/07 10:18:33;;;;;;;23.83;16.13;;;;;;;15.57;100.00;95036.03;5031823;28;20221;-64
2022/11/07 10:21:30;;;;;;;22.05;15.20;;;;;;;15.45;100.00;95013.38;5031563;28;20194;-65
2022/11/07 10:24:08;;;;;;;22.52;14.70;;;;;;;15.63;100.00;95026.94;5019231;28;20221;-64
2022/11/07 10:26:35;;;;;;;26.17;17.10;;;;;;;15.76;100.00;95027.31;5031603;28;20210;-65
2022/11/07 10:29:18;;;;;;;26.85;15.27;;;;;;;15.99;100.00;95064.31;5031360;28;20819;-64
2022/11/07 10:32:11;;;;;;;23.23;16.42;;;;;;;16.06;100.00;95016.56;5031383;28;20216;-64
2022/11/07 10:34:51;;;;;;;27.67;16.20;;;;;;;16.23;100.00;94972.06;5031414;28;20213;-64
2022/11/07 10:37:16;;;;;;;20.55;15.57;;;;;;;16.52;100.00;94975.03;5031568;28;20225;-64
2022/11/07 10:39:42;;;;;;;23.30;15.32;;;;;;;16.89;100.00;94956.63;5031197;28;20186;-63
2022/11/07 10:42:14;;;;;;;22.52;15.73;;;;;;;17.03;100.00;94996.31;5031264;28;20218;-64
2022/11/07 10:44:41;;;;;;;23.45;15.02;;;;;;;17.00;100.00;95048.78;5031339;28;20604;-65
2022/11/07 10:47:21;;;;;;;26.23;15.20;;;;;;;16.79;100.00;95138.31;5013356;28;20245;-64
2022/11/07 10:49:58;;;;;;;23.55;14.05;;;;;;;17.27;100.00;95050.25;5031283;28;20260;-65
2022/11/07 10:52:24;;;;;;;26.70;14.90;;;;;;;17.68;100.00;95059.56;5032037;28;20224;-64
2022/11/07 10:54:50;;;;;;;20.67;13.68;;;;;;;17.75;100.00;95122.25;5031228;28;20279;-64
2022/11/07 10:57:19;;;;;;;19.85;13.82;;;;;;;18.07;100.00;95189.13;5031439;28;20643;-64
2022/11/07 11:00:19;;;;;;;21.98;12.38;;;;;;;17.97;100.00;95211.66;5031121;28;20193;-64
2022/11/07 11:02:47;;;;;;;21.02;13.27;;;;;;;18.13;100.00;95126.72;5030909;28;20228;-64
2022/11/07 11:05:41;;;;;;;18.85;14.05;;;;;;;18.31;100.00;95088.69;5030825;28;20236;-64
2022/11/07 11:08:16;;;;;;;20.58;12.75;;;;;;;17.88;100.00;95148.28;5028259;28;20268;-65
2022/11/07 11:10:41;;;;;;;15.60;12.43;;;;;;;18.28;100.00;95145.66;5030964;28;20691;-65
2022/11/07 11:13:24;;;;;;;19.35;12.70;;;;;;;18.60;100.00;95123.38;5030846;28;20214;-64
2022/11/07 11:15:49;;;;;;;16.25;12.07;;;;;;;18.70;99.55;95154.91;5013023;28;20193;-64
2022/11/07 11:18:17;;;;;;;18.67;13.38;;;;;;;18.91;98.20;95158.50;5030725;28;20711;-65
2022/11/07 11:20:55;;;;;;;23.75;14.38;;;;;;;19.04;98.02;95145.88;5030893;28;20186;-65
2022/11/07 11:23:24;;;;;;;16.60;12.65;;;;;;;18.96;98.06;95129.66;5030703;28;20194;-64
2022/11/07 11:25:57;;;;;;;19.63;13.25;;;;;;;18.96;97.98;95129.66;5030763;28;20191;-63
2022/11/07 11:28:50;;;;;;;20.48;13.23;;;;;;;18.95;97.55;95128.84;5030564;28;20256;-65